sensor_id;sensor_type;location;lat;lon;timestamp;P1;durP1;ratioP1;P2;durP2;ratioP2
60100;SDS011;45978;53.646;55.930;2022-10-19T00:01:04;11.45;;;9.77;;
60100;SDS011;45978;53.646;55.930;2022-10-19T00:02:18;10.85;;;7.95;;
60100;SDS011;45978;53.646;55.930;2022-10-19T00:03:19;12.07;;;10.32;;
60100;SDS011;45978;53.646;55.930;2022-10-19T00:04:22;17.20;;;10.27;;
60100;SDS011;45978;53.646;55.930;2022-10-19T00:05:29;12.00;;;9.05;;
60100;SDS011;45978;53.646;55.930;2022-10-19T00:06:33;11.05;;;9.65;;
60100;SDS011;45978;53.646;55.930;2022-10-19T00:07:37;14.82;;;9.65;;
60100;SDS011;45978;53.646;55.930;2022-10-19T00:08:39;13.60;;;9.63;;
60100;SDS011;45978;53.646;55.930;2022-10-19T00:09:42;14.27;;;9.00;;
60100;SDS011;45978;53.646;55.930;2022-10-19T00:10:44;17.33;;;11.50;;
60100;SDS011;45978;53.646;55.930;2022-10-19T00:11:46;13.07;;;10.68;;
60100;SDS011;45978;53.646;55.930;2022-10-19T00:12:51;17.52;;;10.88;;
60100;SDS011;45978;53.646;55.930;2022-10-19T00:13:52;11.65;;;9.43;;
60100;SDS011;45978;53.646;55.930;2022-10-19T00:14:55;17.45;;;10.73;;
60100;SDS011;45978;53.646;55.930;2022-10-19T00:15:56;11.20;;;9.00;;
60100;SDS011;45978;53.646;55.930;2022-10-19T00:16:57;9.93;;;8.95;;
60100;SDS011;45978;53.646;55.930;2022-10-19T00:17:58;14.05;;;8.88;;
60100;SDS011;45978;53.646;55.930;2022-10-19T00:19:00;10.43;;;7.40;;
60100;SDS011;45978;53.646;55.930;2022-10-19T00:20:03;12.82;;;9.82;;
60100;SDS011;45978;53.646;55.930;2022-10-19T00:21:05;11.10;;;9.90;;
60100;SDS011;45978;53.646;55.930;2022-10-19T00:22:08;9.52;;;6.93;;
60100;SDS011;45978;53.646;55.930;2022-10-19T00:23:10;11.80;;;10.20;;
60100;SDS011;45978;53.646;55.930;2022-10-19T00:24:11;15.95;;;10.82;;
60100;SDS011;45978;53.646;55.930;2022-10-19T00:25:16;12.10;;;7.55;;
60100;SDS011;45978;53.646;55.930;2022-10-19T00:26:17;11.35;;;8.60;;
60100;SDS011;45978;53.646;55.930;2022-10-19T00:27:18;11.93;;;9.00;;
60100;SDS011;45978;53.646;55.930;2022-10-19T00:28:20;13.70;;;9.93;;
60100;SDS011;45978;53.646;55.930;2022-10-19T00:29:22;15.65;;;9.82;;
60100;SDS011;45978;53.646;55.930;2022-10-19T00:30:23;13.55;;;9.98;;
60100;SDS011;45978;53.646;55.930;2022-10-19T00:31:26;15.40;;;11.02;;
60100;SDS011;45978;53.646;55.930;2022-10-19T00:32:28;13.77;;;9.35;;
60100;SDS011;45978;53.646;55.930;2022-10-19T00:33:29;17.00;;;10.70;;
60100;SDS011;45978;53.646;55.930;2022-10-19T00:34:31;11.68;;;9.90;;
60100;SDS011;45978;53.646;55.930;2022-10-19T00:35:32;20.48;;;9.75;;
60100;SDS011;45978;53.646;55.930;2022-10-19T00:36:35;15.27;;;10.23;;
60100;SDS011;45978;53.646;55.930;2022-10-19T00:37:39;9.48;;;8.10;;
60100;SDS011;45978;53.646;55.930;2022-10-19T00:38:40;14.98;;;9.27;;
60100;SDS011;45978;53.646;55.930;2022-10-19T00:39:43;10.18;;;8.35;;
60100;SDS011;45978;53.646;55.930;2022-10-19T00:40:45;14.23;;;10.73;;
60100;SDS011;45978;53.646;55.930;2022-10-19T00:41:49;12.23;;;9.75;;
60100;SDS011;45978;53.646;55.930;2022-10-19T00:42:53;7.22;;;6.07;;
60100;SDS011;45978;53.646;55.930;2022-10-19T00:44:00;14.23;;;10.43;;
60100;SDS011;45978;53.646;55.930;2022-10-19T00:45:14;11.82;;;9.75;;
60100;SDS011;45978;53.646;55.930;2022-10-19T00:46:18;15.18;;;10.98;;
60100;SDS011;45978;53.646;55.930;2022-10-19T00:47:21;15.95;;;9.90;;
60100;SDS011;45978;53.646;55.930;2022-10-19T00:48:26;16.50;;;11.02;;
60100;SDS011;45978;53.646;55.930;2022-10-19T00:49:35;19.13;;;10.50;;
60100;SDS011;45978;53.646;55.930;2022-10-19T00:50:39;14.50;;;9.40;;
60100;SDS011;45978;53.646;55.930;2022-10-19T00:51:42;12.63;;;10.38;;
60100;SDS011;45978;53.646;55.930;2022-10-19T00:52:46;11.48;;;7.05;;
60100;SDS011;45978;53.646;55.930;2022-10-19T00:53:47;19.02;;;11.30;;
60100;SDS011;45978;53.646;55.930;2022-10-19T00:54:48;12.80;;;9.75;;
60100;SDS011;45978;53.646;55.930;2022-10-19T00:55:52;13.10;;;9.60;;
60100;SDS011;45978;53.646;55.930;2022-10-19T00:56:57;15.30;;;11.15;;
60100;SDS011;45978;53.646;55.930;2022-10-19T00:57:59;13.50;;;10.40;;
60100;SDS011;45978;53.646;55.930;2022-10-19T00:59:03;12.25;;;10.77;;
60100;SDS011;45978;53.646;55.930;2022-10-19T01:00:05;13.55;;;10.75;;
60100;SDS011;45978;53.646;55.930;2022-10-19T01:01:10;16.88;;;11.02;;
60100;SDS011;45978;53.646;55.930;2022-10-19T01:02:16;15.13;;;8.85;;
60100;SDS011;45978;53.646;55.930;2022-10-19T01:03:21;15.75;;;10.90;;
60100;SDS011;45978;53.646;55.930;2022-10-19T01:04:22;11.25;;;9.60;;
60100;SDS011;45978;53.646;55.930;2022-10-19T01:05:27;14.27;;;8.70;;
60100;SDS011;45978;53.646;55.930;2022-10-19T01:06:28;12.75;;;9.07;;
60100;SDS011;45978;53.646;55.930;2022-10-19T01:07:31;15.02;;;11.50;;
60100;SDS011;45978;53.646;55.930;2022-10-19T01:08:32;12.48;;;10.40;;
60100;SDS011;45978;53.646;55.930;2022-10-19T01:09:34;16.70;;;11.10;;
60100;SDS011;45978;53.646;55.930;2022-10-19T01:16:35;12.10;;;7.85;;
60100;SDS011;45978;53.646;55.930;2022-10-19T01:17:54;11.50;;;9.93;;
60100;SDS011;45978;53.646;55.930;2022-10-19T01:24:58;18.27;;;13.23;;
60100;SDS011;45978;53.646;55.930;2022-10-19T01:26:30;19.90;;;13.95;;
60100;SDS011;45978;53.646;55.930;2022-10-19T01:33:30;14.13;;;11.35;;
60100;SDS011;45978;53.646;55.930;2022-10-19T01:36:06;16.02;;;12.10;;
60100;SDS011;45978;53.646;55.930;2022-10-19T01:42:44;10.30;;;8.15;;
60100;SDS011;45978;53.646;55.930;2022-10-19T01:44:06;8.27;;;7.45;;
60100;SDS011;45978;53.646;55.930;2022-10-19T01:45:43;8.85;;;7.88;;
60100;SDS011;45978;53.646;55.930;2022-10-19T01:47:07;8.57;;;6.45;;
60100;SDS011;45978;53.646;55.930;2022-10-19T01:48:21;11.75;;;8.35;;
60100;SDS011;45978;53.646;55.930;2022-10-19T01:49:31;11.23;;;8.23;;
60100;SDS011;45978;53.646;55.930;2022-10-19T01:50:49;13.23;;;9.52;;
60100;SDS011;45978;53.646;55.930;2022-10-19T01:52:03;11.93;;;9.43;;
60100;SDS011;45978;53.646;55.930;2022-10-19T01:53:08;14.82;;;11.20;;
60100;SDS011;45978;53.646;55.930;2022-10-19T01:54:12;8.57;;;5.63;;
60100;SDS011;45978;53.646;55.930;2022-10-19T01:55:16;10.32;;;8.73;;
60100;SDS011;45978;53.646;55.930;2022-10-19T01:56:20;10.73;;;8.07;;
60100;SDS011;45978;53.646;55.930;2022-10-19T01:57:27;10.63;;;9.63;;
60100;SDS011;45978;53.646;55.930;2022-10-19T01:58:34;7.40;;;5.93;;
60100;SDS011;45978;53.646;55.930;2022-10-19T01:59:38;10.23;;;8.57;;
60100;SDS011;45978;53.646;55.930;2022-10-19T02:00:41;7.43;;;5.25;;
60100;SDS011;45978;53.646;55.930;2022-10-19T02:01:45;12.27;;;9.63;;
60100;SDS011;45978;53.646;55.930;2022-10-19T02:02:51;11.88;;;9.32;;
60100;SDS011;45978;53.646;55.930;2022-10-19T02:03:54;16.40;;;10.05;;
60100;SDS011;45978;53.646;55.930;2022-10-19T02:04:57;11.90;;;10.30;;
60100;SDS011;45978;53.646;55.930;2022-10-19T02:06:01;17.58;;;11.30;;
60100;SDS011;45978;53.646;55.930;2022-10-19T02:07:06;17.10;;;10.45;;
60100;SDS011;45978;53.646;55.930;2022-10-19T02:08:14;12.88;;;9.45;;
60100;SDS011;45978;53.646;55.930;2022-10-19T02:09:21;15.48;;;10.80;;
60100;SDS011;45978;53.646;55.930;2022-10-19T02:10:23;12.05;;;9.88;;
60100;SDS011;45978;53.646;55.930;2022-10-19T02:11:26;18.50;;;12.35;;
60100;SDS011;45978;53.646;55.930;2022-10-19T02:12:28;15.18;;;11.75;;
60100;SDS011;45978;53.646;55.930;2022-10-19T02:13:31;15.57;;;12.55;;
60100;SDS011;45978;53.646;55.930;2022-10-19T02:14:34;16.48;;;12.10;;
60100;SDS011;45978;53.646;55.930;2022-10-19T02:15:42;13.80;;;10.95;;
60100;SDS011;45978;53.646;55.930;2022-10-19T02:16:54;17.58;;;11.93;;
60100;SDS011;45978;53.646;55.930;2022-10-19T02:18:00;19.27;;;13.95;;
60100;SDS011;45978;53.646;55.930;2022-10-19T02:19:04;13.35;;;8.50;;
60100;SDS011;45978;53.646;55.930;2022-10-19T02:20:10;16.83;;;11.52;;
60100;SDS011;45978;53.646;55.930;2022-10-19T02:21:13;19.00;;;13.95;;
60100;SDS011;45978;53.646;55.930;2022-10-19T02:22:15;11.80;;;7.97;;
60100;SDS011;45978;53.646;55.930;2022-10-19T02:23:19;19.25;;;13.82;;
60100;SDS011;45978;53.646;55.930;2022-10-19T02:24:22;19.73;;;13.57;;
60100;SDS011;45978;53.646;55.930;2022-10-19T02:25:23;16.48;;;14.13;;
60100;SDS011;45978;53.646;55.930;2022-10-19T02:28:18;20.75;;;15.05;;
60100;SDS011;45978;53.646;55.930;2022-10-19T02:29:22;19.05;;;14.27;;
60100;SDS011;45978;53.646;55.930;2022-10-19T02:30:23;12.38;;;9.52;;
60100;SDS011;45978;53.646;55.930;2022-10-19T02:31:24;17.90;;;13.52;;
60100;SDS011;45978;53.646;55.930;2022-10-19T02:32:28;16.92;;;13.85;;
60100;SDS011;45978;53.646;55.930;2022-10-19T02:33:29;21.65;;;14.57;;
60100;SDS011;45978;53.646;55.930;2022-10-19T02:34:31;19.65;;;15.45;;
60100;SDS011;45978;53.646;55.930;2022-10-19T02:35:33;17.33;;;14.65;;
60100;SDS011;45978;53.646;55.930;2022-10-19T02:36:38;12.90;;;11.27;;
60100;SDS011;45978;53.646;55.930;2022-10-19T02:37:39;18.88;;;14.25;;
60100;SDS011;45978;53.646;55.930;2022-10-19T02:38:41;20.00;;;13.30;;
60100;SDS011;45978;53.646;55.930;2022-10-19T02:39:44;13.00;;;11.57;;
60100;SDS011;45978;53.646;55.930;2022-10-19T02:40:50;19.38;;;13.88;;
60100;SDS011;45978;53.646;55.930;2022-10-19T02:43:14;10.55;;;9.25;;
60100;SDS011;45978;53.646;55.930;2022-10-19T02:45:50;10.60;;;9.40;;
60100;SDS011;45978;53.646;55.930;2022-10-19T02:47:00;7.90;;;7.05;;
60100;SDS011;45978;53.646;55.930;2022-10-19T02:48:11;12.63;;;9.40;;
60100;SDS011;45978;53.646;55.930;2022-10-19T02:49:18;9.63;;;7.40;;
60100;SDS011;45978;53.646;55.930;2022-10-19T02:50:19;12.13;;;8.43;;
60100;SDS011;45978;53.646;55.930;2022-10-19T02:52:37;9.38;;;7.72;;
60100;SDS011;45978;53.646;55.930;2022-10-19T02:53:44;9.93;;;7.75;;
60100;SDS011;45978;53.646;55.930;2022-10-19T02:54:48;7.22;;;6.40;;
60100;SDS011;45978;53.646;55.930;2022-10-19T02:55:50;6.50;;;5.68;;
60100;SDS011;45978;53.646;55.930;2022-10-19T02:56:56;7.13;;;6.43;;
60100;SDS011;45978;53.646;55.930;2022-10-19T02:58:12;7.43;;;6.22;;
60100;SDS011;45978;53.646;55.930;2022-10-19T02:59:22;6.65;;;5.60;;
60100;SDS011;45978;53.646;55.930;2022-10-19T03:00:24;7.25;;;6.18;;
60100;SDS011;45978;53.646;55.930;2022-10-19T03:01:26;6.10;;;5.50;;
60100;SDS011;45978;53.646;55.930;2022-10-19T03:02:28;7.55;;;6.55;;
60100;SDS011;45978;53.646;55.930;2022-10-19T03:03:29;7.57;;;6.15;;
60100;SDS011;45978;53.646;55.930;2022-10-19T03:04:31;7.93;;;6.55;;
60100;SDS011;45978;53.646;55.930;2022-10-19T03:05:33;7.05;;;6.45;;
60100;SDS011;45978;53.646;55.930;2022-10-19T03:06:35;8.27;;;7.28;;
60100;SDS011;45978;53.646;55.930;2022-10-19T03:07:43;8.07;;;6.45;;
60100;SDS011;45978;53.646;55.930;2022-10-19T03:08:44;11.60;;;6.72;;
60100;SDS011;45978;53.646;55.930;2022-10-19T03:09:47;6.93;;;6.30;;
60100;SDS011;45978;53.646;55.930;2022-10-19T03:10:51;6.25;;;5.75;;
60100;SDS011;45978;53.646;55.930;2022-10-19T03:11:55;6.95;;;5.53;;
60100;SDS011;45978;53.646;55.930;2022-10-19T03:12:57;8.25;;;6.68;;
60100;SDS011;45978;53.646;55.930;2022-10-19T03:13:59;7.35;;;6.65;;
60100;SDS011;45978;53.646;55.930;2022-10-19T03:15:00;7.75;;;6.40;;
60100;SDS011;45978;53.646;55.930;2022-10-19T03:16:05;9.32;;;6.78;;
60100;SDS011;45978;53.646;55.930;2022-10-19T03:17:10;6.18;;;5.68;;
60100;SDS011;45978;53.646;55.930;2022-10-19T03:18:16;7.10;;;6.40;;
60100;SDS011;45978;53.646;55.930;2022-10-19T03:19:17;7.20;;;6.53;;
60100;SDS011;45978;53.646;55.930;2022-10-19T03:20:19;5.78;;;4.85;;
60100;SDS011;45978;53.646;55.930;2022-10-19T03:21:21;7.32;;;6.57;;
60100;SDS011;45978;53.646;55.930;2022-10-19T03:22:23;6.80;;;6.10;;
60100;SDS011;45978;53.646;55.930;2022-10-19T03:23:25;8.35;;;7.13;;
60100;SDS011;45978;53.646;55.930;2022-10-19T03:24:26;7.55;;;6.85;;
60100;SDS011;45978;53.646;55.930;2022-10-19T03:25:32;6.85;;;5.68;;
60100;SDS011;45978;53.646;55.930;2022-10-19T03:26:33;6.18;;;5.63;;
60100;SDS011;45978;53.646;55.930;2022-10-19T03:27:40;7.75;;;6.90;;
60100;SDS011;45978;53.646;55.930;2022-10-19T03:28:41;10.80;;;7.60;;
60100;SDS011;45978;53.646;55.930;2022-10-19T03:29:42;7.78;;;7.07;;
60100;SDS011;45978;53.646;55.930;2022-10-19T03:30:45;7.40;;;6.53;;
60100;SDS011;45978;53.646;55.930;2022-10-19T03:31:49;8.65;;;6.70;;
60100;SDS011;45978;53.646;55.930;2022-10-19T03:32:50;6.10;;;5.57;;
60100;SDS011;45978;53.646;55.930;2022-10-19T03:33:51;9.05;;;7.10;;
60100;SDS011;45978;53.646;55.930;2022-10-19T03:34:54;6.50;;;5.90;;
60100;SDS011;45978;53.646;55.930;2022-10-19T03:36:14;7.88;;;6.53;;
60100;SDS011;45978;53.646;55.930;2022-10-19T03:37:25;8.65;;;6.32;;
60100;SDS011;45978;53.646;55.930;2022-10-19T03:38:27;7.75;;;6.78;;
60100;SDS011;45978;53.646;55.930;2022-10-19T03:39:32;7.53;;;6.68;;
60100;SDS011;45978;53.646;55.930;2022-10-19T03:40:38;7.18;;;6.47;;
60100;SDS011;45978;53.646;55.930;2022-10-19T03:41:39;9.27;;;8.35;;
60100;SDS011;45978;53.646;55.930;2022-10-19T03:42:42;7.85;;;6.93;;
60100;SDS011;45978;53.646;55.930;2022-10-19T03:43:43;8.75;;;7.28;;
60100;SDS011;45978;53.646;55.930;2022-10-19T03:44:44;8.48;;;6.72;;
60100;SDS011;45978;53.646;55.930;2022-10-19T03:45:45;9.77;;;7.78;;
60100;SDS011;45978;53.646;55.930;2022-10-19T03:46:46;7.80;;;6.55;;
60100;SDS011;45978;53.646;55.930;2022-10-19T03:47:48;7.90;;;7.20;;
60100;SDS011;45978;53.646;55.930;2022-10-19T03:48:50;8.18;;;7.07;;
60100;SDS011;45978;53.646;55.930;2022-10-19T03:49:52;7.22;;;6.57;;
60100;SDS011;45978;53.646;55.930;2022-10-19T03:50:58;7.75;;;6.10;;
60100;SDS011;45978;53.646;55.930;2022-10-19T03:52:01;7.63;;;6.93;;
60100;SDS011;45978;53.646;55.930;2022-10-19T03:53:02;6.78;;;6.15;;
60100;SDS011;45978;53.646;55.930;2022-10-19T03:54:04;8.93;;;7.30;;
60100;SDS011;45978;53.646;55.930;2022-10-19T03:55:12;8.93;;;7.13;;
60100;SDS011;45978;53.646;55.930;2022-10-19T03:56:15;8.52;;;6.80;;
60100;SDS011;45978;53.646;55.930;2022-10-19T03:57:18;7.53;;;6.75;;
60100;SDS011;45978;53.646;55.930;2022-10-19T03:58:21;7.78;;;6.60;;
60100;SDS011;45978;53.646;55.930;2022-10-19T03:59:22;7.40;;;6.30;;
60100;SDS011;45978;53.646;55.930;2022-10-19T04:00:23;27.02;;;15.43;;
60100;SDS011;45978;53.646;55.930;2022-10-19T04:01:29;7.57;;;6.90;;
60100;SDS011;45978;53.646;55.930;2022-10-19T04:02:33;8.43;;;7.25;;
60100;SDS011;45978;53.646;55.930;2022-10-19T04:03:35;9.00;;;7.03;;
60100;SDS011;45978;53.646;55.930;2022-10-19T04:04:36;7.53;;;6.82;;
60100;SDS011;45978;53.646;55.930;2022-10-19T04:05:37;7.82;;;6.88;;
60100;SDS011;45978;53.646;55.930;2022-10-19T04:06:39;7.47;;;6.72;;
60100;SDS011;45978;53.646;55.930;2022-10-19T04:07:43;8.85;;;6.68;;
60100;SDS011;45978;53.646;55.930;2022-10-19T04:08:49;6.05;;;5.55;;
60100;SDS011;45978;53.646;55.930;2022-10-19T04:09:54;7.45;;;6.72;;
60100;SDS011;45978;53.646;55.930;2022-10-19T04:10:57;6.43;;;5.28;;
60100;SDS011;45978;53.646;55.930;2022-10-19T04:12:03;7.63;;;6.00;;
60100;SDS011;45978;53.646;55.930;2022-10-19T04:13:09;7.13;;;6.53;;
60100;SDS011;45978;53.646;55.930;2022-10-19T04:14:14;7.25;;;6.10;;
60100;SDS011;45978;53.646;55.930;2022-10-19T04:15:22;6.47;;;5.88;;
60100;SDS011;45978;53.646;55.930;2022-10-19T04:16:25;7.03;;;6.32;;
60100;SDS011;45978;53.646;55.930;2022-10-19T04:17:27;6.25;;;5.65;;
60100;SDS011;45978;53.646;55.930;2022-10-19T04:18:29;8.38;;;5.38;;
60100;SDS011;45978;53.646;55.930;2022-10-19T04:19:33;6.28;;;5.68;;
60100;SDS011;45978;53.646;55.930;2022-10-19T04:20:34;5.57;;;4.88;;
60100;SDS011;45978;53.646;55.930;2022-10-19T04:21:50;5.47;;;5.03;;
60100;SDS011;45978;53.646;55.930;2022-10-19T04:22:55;7.93;;;5.60;;
60100;SDS011;45978;53.646;55.930;2022-10-19T04:23:58;6.35;;;5.75;;
60100;SDS011;45978;53.646;55.930;2022-10-19T04:25:04;6.05;;;5.55;;
60100;SDS011;45978;53.646;55.930;2022-10-19T04:26:08;5.78;;;5.28;;
60100;SDS011;45978;53.646;55.930;2022-10-19T04:27:10;6.13;;;5.53;;
60100;SDS011;45978;53.646;55.930;2022-10-19T04:28:13;6.28;;;5.78;;
60100;SDS011;45978;53.646;55.930;2022-10-19T04:29:15;7.35;;;5.50;;
60100;SDS011;45978;53.646;55.930;2022-10-19T04:30:18;5.10;;;4.60;;
60100;SDS011;45978;53.646;55.930;2022-10-19T04:31:20;7.88;;;5.97;;
60100;SDS011;45978;53.646;55.930;2022-10-19T04:32:23;9.05;;;5.57;;
60100;SDS011;45978;53.646;55.930;2022-10-19T04:33:24;5.53;;;5.13;;
60100;SDS011;45978;53.646;55.930;2022-10-19T04:34:25;5.32;;;4.82;;
60100;SDS011;45978;53.646;55.930;2022-10-19T04:35:26;6.28;;;5.28;;
60100;SDS011;45978;53.646;55.930;2022-10-19T04:36:27;5.72;;;5.32;;
60100;SDS011;45978;53.646;55.930;2022-10-19T04:37:30;5.72;;;5.15;;
60100;SDS011;45978;53.646;55.930;2022-10-19T04:38:35;6.47;;;5.90;;
60100;SDS011;45978;53.646;55.930;2022-10-19T04:39:37;5.88;;;5.28;;
60100;SDS011;45978;53.646;55.930;2022-10-19T04:40:41;12.68;;;9.68;;
60100;SDS011;45978;53.646;55.930;2022-10-19T04:41:42;6.53;;;5.72;;
60100;SDS011;45978;53.646;55.930;2022-10-19T04:42:43;10.02;;;7.03;;
60100;SDS011;45978;53.646;55.930;2022-10-19T04:43:44;7.43;;;6.63;;
60100;SDS011;45978;53.646;55.930;2022-10-19T04:44:46;8.55;;;6.90;;
60100;SDS011;45978;53.646;55.930;2022-10-19T04:45:48;8.43;;;7.45;;
60100;SDS011;45978;53.646;55.930;2022-10-19T04:46:49;5.70;;;5.18;;
60100;SDS011;45978;53.646;55.930;2022-10-19T04:47:51;7.05;;;6.45;;
60100;SDS011;45978;53.646;55.930;2022-10-19T04:48:56;7.63;;;6.82;;
60100;SDS011;45978;53.646;55.930;2022-10-19T04:49:58;5.63;;;5.13;;
60100;SDS011;45978;53.646;55.930;2022-10-19T04:50:59;6.28;;;4.93;;
60100;SDS011;45978;53.646;55.930;2022-10-19T04:52:07;5.82;;;5.32;;
60100;SDS011;45978;53.646;55.930;2022-10-19T04:53:08;5.60;;;5.05;;
60100;SDS011;45978;53.646;55.930;2022-10-19T04:54:09;5.28;;;4.82;;
60100;SDS011;45978;53.646;55.930;2022-10-19T04:55:10;5.80;;;5.30;;
60100;SDS011;45978;53.646;55.930;2022-10-19T04:56:19;6.40;;;5.80;;
60100;SDS011;45978;53.646;55.930;2022-10-19T04:57:22;5.97;;;5.47;;
60100;SDS011;45978;53.646;55.930;2022-10-19T04:58:26;6.72;;;6.22;;
60100;SDS011;45978;53.646;55.930;2022-10-19T04:59:27;7.18;;;6.45;;
60100;SDS011;45978;53.646;55.930;2022-10-19T05:00:28;8.68;;;7.85;;
60100;SDS011;45978;53.646;55.930;2022-10-19T05:01:30;9.13;;;8.27;;
60100;SDS011;45978;53.646;55.930;2022-10-19T05:02:31;9.52;;;8.73;;
60100;SDS011;45978;53.646;55.930;2022-10-19T05:03:34;11.75;;;8.93;;
60100;SDS011;45978;53.646;55.930;2022-10-19T05:04:37;9.95;;;8.82;;
60100;SDS011;45978;53.646;55.930;2022-10-19T05:05:39;84.63;;;50.72;;
60100;SDS011;45978;53.646;55.930;2022-10-19T05:06:40;27.35;;;22.15;;
60100;SDS011;45978;53.646;55.930;2022-10-19T05:07:41;15.63;;;12.10;;
60100;SDS011;45978;53.646;55.930;2022-10-19T05:08:47;10.32;;;9.32;;
60100;SDS011;45978;53.646;55.930;2022-10-19T05:09:49;11.55;;;9.52;;
60100;SDS011;45978;53.646;55.930;2022-10-19T05:10:51;8.38;;;7.47;;
60100;SDS011;45978;53.646;55.930;2022-10-19T05:11:55;8.55;;;7.75;;
60100;SDS011;45978;53.646;55.930;2022-10-19T05:12:58;8.38;;;7.57;;
60100;SDS011;45978;53.646;55.930;2022-10-19T05:14:04;6.75;;;6.25;;
60100;SDS011;45978;53.646;55.930;2022-10-19T05:15:07;7.82;;;6.38;;
60100;SDS011;45978;53.646;55.930;2022-10-19T05:16:14;7.50;;;6.60;;
60100;SDS011;45978;53.646;55.930;2022-10-19T05:17:19;7.60;;;6.90;;
60100;SDS011;45978;53.646;55.930;2022-10-19T05:18:20;8.68;;;7.25;;
60100;SDS011;45978;53.646;55.930;2022-10-19T05:19:22;7.47;;;6.78;;
60100;SDS011;45978;53.646;55.930;2022-10-19T05:20:23;6.00;;;5.47;;
60100;SDS011;45978;53.646;55.930;2022-10-19T05:21:26;6.18;;;5.57;;
60100;SDS011;45978;53.646;55.930;2022-10-19T05:22:29;5.70;;;5.20;;
60100;SDS011;45978;53.646;55.930;2022-10-19T05:23:32;6.55;;;5.65;;
60100;SDS011;45978;53.646;55.930;2022-10-19T05:24:34;5.28;;;4.88;;
60100;SDS011;45978;53.646;55.930;2022-10-19T05:25:37;5.07;;;4.78;;
60100;SDS011;45978;53.646;55.930;2022-10-19T05:26:39;5.85;;;5.35;;
60100;SDS011;45978;53.646;55.930;2022-10-19T05:27:49;5.00;;;4.60;;
60100;SDS011;45978;53.646;55.930;2022-10-19T05:28:56;9.55;;;7.30;;
60100;SDS011;45978;53.646;55.930;2022-10-19T05:30:02;5.20;;;4.80;;
60100;SDS011;45978;53.646;55.930;2022-10-19T05:31:10;5.63;;;5.18;;
60100;SDS011;45978;53.646;55.930;2022-10-19T05:32:13;5.25;;;4.78;;
60100;SDS011;45978;53.646;55.930;2022-10-19T05:33:14;4.93;;;4.50;;
60100;SDS011;45978;53.646;55.930;2022-10-19T05:34:17;23.63;;;12.57;;
60100;SDS011;45978;53.646;55.930;2022-10-19T05:35:19;4.53;;;4.22;;
60100;SDS011;45978;53.646;55.930;2022-10-19T05:37:29;3.90;;;3.70;;
60100;SDS011;45978;53.646;55.930;2022-10-19T05:38:30;3.65;;;3.20;;
60100;SDS011;45978;53.646;55.930;2022-10-19T05:39:32;3.60;;;3.30;;
60100;SDS011;45978;53.646;55.930;2022-10-19T05:40:33;3.03;;;2.83;;
60100;SDS011;45978;53.646;55.930;2022-10-19T05:41:36;2.75;;;2.60;;
60100;SDS011;45978;53.646;55.930;2022-10-19T05:42:37;2.72;;;2.53;;
60100;SDS011;45978;53.646;55.930;2022-10-19T05:43:39;3.38;;;2.80;;
60100;SDS011;45978;53.646;55.930;2022-10-19T05:44:42;3.92;;;2.88;;
60100;SDS011;45978;53.646;55.930;2022-10-19T05:45:43;2.80;;;2.60;;
60100;SDS011;45978;53.646;55.930;2022-10-19T05:46:44;2.75;;;2.55;;
60100;SDS011;45978;53.646;55.930;2022-10-19T05:47:46;2.83;;;2.63;;
60100;SDS011;45978;53.646;55.930;2022-10-19T05:48:47;3.53;;;2.50;;
60100;SDS011;45978;53.646;55.930;2022-10-19T05:49:49;3.78;;;3.15;;
60100;SDS011;45978;53.646;55.930;2022-10-19T05:50:51;2.78;;;2.58;;
60100;SDS011;45978;53.646;55.930;2022-10-19T05:51:53;3.10;;;2.40;;
60100;SDS011;45978;53.646;55.930;2022-10-19T05:52:55;2.53;;;2.42;;
60100;SDS011;45978;53.646;55.930;2022-10-19T05:53:58;2.63;;;2.03;;
60100;SDS011;45978;53.646;55.930;2022-10-19T05:54:59;2.22;;;2.10;;
60100;SDS011;45978;53.646;55.930;2022-10-19T05:56:02;2.17;;;2.05;;
60100;SDS011;45978;53.646;55.930;2022-10-19T05:57:04;3.20;;;2.30;;
60100;SDS011;45978;53.646;55.930;2022-10-19T05:58:07;2.20;;;2.10;;
60100;SDS011;45978;53.646;55.930;2022-10-19T05:59:09;1.90;;;1.80;;
60100;SDS011;45978;53.646;55.930;2022-10-19T06:00:14;1.92;;;1.73;;
60100;SDS011;45978;53.646;55.930;2022-10-19T06:01:16;7.47;;;6.07;;
60100;SDS011;45978;53.646;55.930;2022-10-19T06:02:19;1.98;;;1.83;;
60100;SDS011;45978;53.646;55.930;2022-10-19T06:03:20;2.05;;;1.58;;
60100;SDS011;45978;53.646;55.930;2022-10-19T06:04:23;1.70;;;1.60;;
60100;SDS011;45978;53.646;55.930;2022-10-19T06:05:27;1.60;;;1.50;;
60100;SDS011;45978;53.646;55.930;2022-10-19T06:06:29;2.97;;;1.60;;
60100;SDS011;45978;53.646;55.930;2022-10-19T06:07:30;1.80;;;1.70;;
60100;SDS011;45978;53.646;55.930;2022-10-19T06:08:32;3.50;;;1.55;;
60100;SDS011;45978;53.646;55.930;2022-10-19T06:09:34;1.40;;;1.40;;
60100;SDS011;45978;53.646;55.930;2022-10-19T06:10:36;2.00;;;1.85;;
60100;SDS011;45978;53.646;55.930;2022-10-19T06:11:39;1.52;;;1.48;;
60100;SDS011;45978;53.646;55.930;2022-10-19T06:12:44;1.50;;;1.40;;
60100;SDS011;45978;53.646;55.930;2022-10-19T06:13:49;1.77;;;1.45;;
60100;SDS011;45978;53.646;55.930;2022-10-19T06:14:56;3.28;;;1.50;;
60100;SDS011;45978;53.646;55.930;2022-10-19T06:16:00;1.27;;;1.20;;
60100;SDS011;45978;53.646;55.930;2022-10-19T06:17:06;1.10;;;1.10;;
60100;SDS011;45978;53.646;55.930;2022-10-19T06:18:09;1.45;;;1.38;;
60100;SDS011;45978;53.646;55.930;2022-10-19T06:19:14;1.30;;;1.30;;
60100;SDS011;45978;53.646;55.930;2022-10-19T06:20:16;1.58;;;1.30;;
60100;SDS011;45978;53.646;55.930;2022-10-19T06:21:19;5.28;;;1.40;;
60100;SDS011;45978;53.646;55.930;2022-10-19T06:22:23;1.20;;;1.20;;
60100;SDS011;45978;53.646;55.930;2022-10-19T06:23:25;1.30;;;1.30;;
60100;SDS011;45978;53.646;55.930;2022-10-19T06:24:32;1.50;;;1.40;;
60100;SDS011;45978;53.646;55.930;2022-10-19T06:25:33;1.20;;;1.20;;
60100;SDS011;45978;53.646;55.930;2022-10-19T06:26:36;1.10;;;1.10;;
60100;SDS011;45978;53.646;55.930;2022-10-19T06:27:39;1.30;;;1.30;;
60100;SDS011;45978;53.646;55.930;2022-10-19T06:28:41;0.90;;;0.90;;
60100;SDS011;45978;53.646;55.930;2022-10-19T06:29:44;1.77;;;1.33;;
60100;SDS011;45978;53.646;55.930;2022-10-19T06:30:46;1.00;;;1.00;;
60100;SDS011;45978;53.646;55.930;2022-10-19T06:31:47;1.17;;;1.17;;
60100;SDS011;45978;53.646;55.930;2022-10-19T06:32:48;1.00;;;1.00;;
60100;SDS011;45978;53.646;55.930;2022-10-19T06:33:55;1.30;;;1.30;;
60100;SDS011;45978;53.646;55.930;2022-10-19T06:35:01;0.95;;;0.95;;
60100;SDS011;45978;53.646;55.930;2022-10-19T06:36:13;0.90;;;0.90;;
60100;SDS011;45978;53.646;55.930;2022-10-19T06:37:17;1.10;;;1.10;;
60100;SDS011;45978;53.646;55.930;2022-10-19T06:38:21;1.10;;;1.10;;
60100;SDS011;45978;53.646;55.930;2022-10-19T06:39:24;1.40;;;1.30;;
60100;SDS011;45978;53.646;55.930;2022-10-19T06:40:27;1.30;;;1.30;;
60100;SDS011;45978;53.646;55.930;2022-10-19T06:41:29;1.20;;;1.20;;
60100;SDS011;45978;53.646;55.930;2022-10-19T06:42:49;1.17;;;1.17;;
60100;SDS011;45978;53.646;55.930;2022-10-19T06:43:56;1.08;;;1.08;;
60100;SDS011;45978;53.646;55.930;2022-10-19T06:44:59;0.70;;;0.70;;
60100;SDS011;45978;53.646;55.930;2022-10-19T06:46:12;1.20;;;1.20;;
60100;SDS011;45978;53.646;55.930;2022-10-19T06:47:22;1.08;;;1.08;;
60100;SDS011;45978;53.646;55.930;2022-10-19T06:48:28;1.02;;;1.02;;
60100;SDS011;45978;53.646;55.930;2022-10-19T06:49:30;1.40;;;1.30;;